Otagawa — JD3046 — position and weather

sailwx.info

Track history (hours):
 
Tides and Currents Weather Stations Pressure Air Temp Water Temp Dewpoint Dewpoint Depression Visibility Wind Speed Wind Dir Waves Ship Positions

Otagawa

Last reported at 2014-Aug-31 09:33 UTC. Time now 2014-Aug-31 10:31 UTC.
Position N 35°26' E 139°41'.

Length 70 m; draft 4.6 m.

Type: Ship. MMSI: 431001328.

Date/timePositionNaut miles runAvg speedWind from/ knotsBaromVisibWave heightAir tempDewpointWater temp
2014-Aug-31 09:33N 35°26' E 139°41'0 0.0
2014-Aug-31 08:33N 35°26' E 139°41'0 0.0
2014-Aug-31 07:33N 35°26' E 139°41'0 0.0
2014-Aug-31 06:33N 35°26' E 139°41'5 5.2
2014-Aug-31 05:33N 35°21' E 139°43'9 9.5
2014-Aug-31 04:33N 35°12' E 139°47'10 9.9
2014-Aug-31 03:33N 35°03' E 139°44'9 8.9
2014-Aug-31 02:33N 34°54' E 139°46'9 9.0
2014-Aug-31 01:32N 34°52' E 139°56'1010.1
2014-Aug-31 00:33N 34°57' E 140°06'1110.6
2014-Aug-30 23:33N 35°03' E 140°17'1111.4
2014-Aug-30 22:33N 35°11' E 140°27'1111.0
2014-Aug-30 21:33N 35°20' E 140°35'1111.0
2014-Aug-30 20:33N 35°28' E 140°44'1311.3
2014-Aug-30 19:25N 35°38' E 140°53'1011.5
2014-Aug-30 18:33N 35°48' E 140°57'1311.3
2014-Aug-30 17:24N 36°01' E 140°59'46 1.3
2014-Aug-29 06:21N 35°19' E 140°36'8 9.9
2014-Aug-29 05:31N 35°13' E 140°30'11 9.1
2014-Aug-29 04:18N 35°05' E 140°20'810.1
2014-Aug-29 03:33N 35°01' E 140°12'1010.2
2014-Aug-29 02:33N 34°55' E 140°02'11 9.3
2014-Aug-29 01:23N 34°52' E 139°49'910.4
2014-Aug-29 00:33N 34°60' E 139°44'1111.2
2014-Aug-28 23:33N 35°11' E 139°46'1211.5
2014-Aug-28 22:33N 35°22' E 139°42'4 4.1
2014-Aug-28 21:33N 35°26' E 139°42'1 0.9
2014-Aug-28 20:33N 35°26' E 139°41'0 0.0
2014-Aug-28 19:33N 35°26' E 139°41'0 0.0
2014-Aug-28 18:33N 35°26' E 139°41'0 0.0
2014-Aug-28 17:33N 35°26' E 139°41'0 0.0
2014-Aug-28 16:33N 35°26' E 139°41'0 0.0
2014-Aug-28 15:33N 35°26' E 139°41'0 0.0
2014-Aug-28 14:33N 35°26' E 139°41'0 0.0
2014-Aug-28 13:33N 35°26' E 139°41'0 0.0
2014-Aug-28 12:33N 35°26' E 139°41'0 0.0
2014-Aug-28 11:33N 35°26' E 139°41'0 0.1
2014-Aug-28 10:34N 35°26' E 139°41'9 9.1
2014-Aug-28 09:33N 35°32' E 139°50'5 5.3
2014-Aug-28 08:33N 35°36' E 139°47'0 0.0
2014-Aug-28 07:34N 35°36' E 139°47'6 5.7
2014-Aug-28 06:34N 35°31' E 139°50'4 4.4
2014-Aug-28 05:33N 35°29' E 139°45'9 9.0
2014-Aug-28 04:33N 35°20' E 139°44'10 9.5
2014-Aug-28 03:34N 35°11' E 139°46'9 9.4
2014-Aug-28 02:33N 35°03' E 139°40'1110.9
2014-Aug-28 01:33N 34°56' E 139°29'48 1.5
2014-Aug-26 17:12N 34°34' E 138°37'4011.0
2014-Aug-26 13:32N 34°50' E 139°22'1010.5
2014-Aug-26 12:33N 34°50' E 139°35'1110.6
2014-Aug-26 11:33N 34°51' E 139°48'1110.8
2014-Aug-26 10:32N 34°53' E 140°01'1010.0
2014-Aug-26 09:33N 34°59' E 140°10'2210.8
2014-Aug-26 07:31N 35°15' E 140°30'1010.8
2014-Aug-26 06:33N 35°23' E 140°37'1110.9
2014-Aug-26 05:33N 35°32' E 140°45'1510.7
2014-Aug-26 04:07N 35°46' E 140°54'610.9
2014-Aug-26 03:33N 35°51' E 140°50'8 7.1
2014-Aug-26 02:25N 35°56' E 140°42'2 2.7
2014-Aug-26 01:33N 35°56' E 140°39'0 0.0
2014-Aug-26 00:32N 35°56' E 140°39'0 0.0
2014-Aug-25 23:15N 35°56' E 140°39'3 4.1
2014-Aug-25 22:33N 35°57' E 140°42'10 9.7
2014-Aug-25 21:33N 36°02' E 140°53'1111.1
2014-Aug-25 20:33N 36°13' E 140°54'60 1.3
2014-Aug-23 23:28N 35°16' E 140°32'1510.9
2014-Aug-23 22:08N 35°05' E 140°20'711.7
2014-Aug-23 21:33N 35°02' E 140°13'1211.7
2014-Aug-23 20:30N 34°54' E 140°01'1310.1
2014-Aug-23 19:15N 34°55' E 139°45'24 1.6
2014-Aug-23 03:33N 35°02' E 140°14'1310.2
2014-Aug-23 02:19N 35°10' E 140°26'810.3
2014-Aug-23 01:33N 35°16' E 140°31'1010.1
2014-Aug-23 00:31N 35°25' E 140°39'1010.0
2014-Aug-22 23:29N 35°33' E 140°47'9 9.9
2014-Aug-22 22:33N 35°40' E 140°54'10 9.8
2014-Aug-22 21:33N 35°49' E 140°55'1110.6
2014-Aug-22 20:31N 36°00' E 140°55'  
Track history (hours):
 
Tides and Currents Weather Stations Pressure Air Temp Water Temp Dewpoint Dewpoint Depression Visibility Wind Speed Wind Dir Waves Ship Positions

Otagawa

Last reported at 2014-Aug-31 09:33 UTC. Time now 2014-Aug-31 10:31 UTC.
Position N 35°26' E 139°41'.

Length 70 m; draft 4.6 m.

Type: Ship. MMSI: 431001328.

Date/timePositionNaut miles runAvg speedWind from/ knotsBaromVisibWave heightAir tempDewpointWater temp
2014-Aug-31 09:33N 35°26' E 139°41'0 0.0
2014-Aug-31 08:33N 35°26' E 139°41'0 0.0
2014-Aug-31 07:33N 35°26' E 139°41'0 0.0
2014-Aug-31 06:33N 35°26' E 139°41'5 5.2
2014-Aug-31 05:33N 35°21' E 139°43'9 9.5
2014-Aug-31 04:33N 35°12' E 139°47'10 9.9
2014-Aug-31 03:33N 35°03' E 139°44'9 8.9
2014-Aug-31 02:33N 34°54' E 139°46'9 9.0
2014-Aug-31 01:32N 34°52' E 139°56'1010.1
2014-Aug-31 00:33N 34°57' E 140°06'1110.6
2014-Aug-30 23:33N 35°03' E 140°17'1111.4
2014-Aug-30 22:33N 35°11' E 140°27'1111.0
2014-Aug-30 21:33N 35°20' E 140°35'1111.0
2014-Aug-30 20:33N 35°28' E 140°44'1311.3
2014-Aug-30 19:25N 35°38' E 140°53'1011.5
2014-Aug-30 18:33N 35°48' E 140°57'1311.3
2014-Aug-30 17:24N 36°01' E 140°59'46 1.3
2014-Aug-29 06:21N 35°19' E 140°36'8 9.9
2014-Aug-29 05:31N 35°13' E 140°30'11 9.1
2014-Aug-29 04:18N 35°05' E 140°20'810.1
2014-Aug-29 03:33N 35°01' E 140°12'1010.2
2014-Aug-29 02:33N 34°55' E 140°02'11 9.3
2014-Aug-29 01:23N 34°52' E 139°49'910.4
2014-Aug-29 00:33N 34°60' E 139°44'1111.2
2014-Aug-28 23:33N 35°11' E 139°46'1211.5
2014-Aug-28 22:33N 35°22' E 139°42'4 4.1
2014-Aug-28 21:33N 35°26' E 139°42'1 0.9
2014-Aug-28 20:33N 35°26' E 139°41'0 0.0
2014-Aug-28 19:33N 35°26' E 139°41'0 0.0
2014-Aug-28 18:33N 35°26' E 139°41'0 0.0
2014-Aug-28 17:33N 35°26' E 139°41'0 0.0
2014-Aug-28 16:33N 35°26' E 139°41'0 0.0
2014-Aug-28 15:33N 35°26' E 139°41'0 0.0
2014-Aug-28 14:33N 35°26' E 139°41'0 0.0
2014-Aug-28 13:33N 35°26' E 139°41'0 0.0
2014-Aug-28 12:33N 35°26' E 139°41'0 0.0
2014-Aug-28 11:33N 35°26' E 139°41'0 0.1
2014-Aug-28 10:34N 35°26' E 139°41'9 9.1
2014-Aug-28 09:33N 35°32' E 139°50'5 5.3
2014-Aug-28 08:33N 35°36' E 139°47'0 0.0
2014-Aug-28 07:34N 35°36' E 139°47'6 5.7
2014-Aug-28 06:34N 35°31' E 139°50'4 4.4
2014-Aug-28 05:33N 35°29' E 139°45'9 9.0
2014-Aug-28 04:33N 35°20' E 139°44'10 9.5
2014-Aug-28 03:34N 35°11' E 139°46'9 9.4
2014-Aug-28 02:33N 35°03' E 139°40'1110.9
2014-Aug-28 01:33N 34°56' E 139°29'48 1.5
2014-Aug-26 17:12N 34°34' E 138°37'4011.0
2014-Aug-26 13:32N 34°50' E 139°22'1010.5
2014-Aug-26 12:33N 34°50' E 139°35'1110.6
2014-Aug-26 11:33N 34°51' E 139°48'1110.8
2014-Aug-26 10:32N 34°53' E 140°01'1010.0
2014-Aug-26 09:33N 34°59' E 140°10'2210.8
2014-Aug-26 07:31N 35°15' E 140°30'1010.8
2014-Aug-26 06:33N 35°23' E 140°37'1110.9
2014-Aug-26 05:33N 35°32' E 140°45'1510.7
2014-Aug-26 04:07N 35°46' E 140°54'610.9
2014-Aug-26 03:33N 35°51' E 140°50'8 7.1
2014-Aug-26 02:25N 35°56' E 140°42'2 2.7
2014-Aug-26 01:33N 35°56' E 140°39'0 0.0
2014-Aug-26 00:32N 35°56' E 140°39'0 0.0
2014-Aug-25 23:15N 35°56' E 140°39'3 4.1
2014-Aug-25 22:33N 35°57' E 140°42'10 9.7
2014-Aug-25 21:33N 36°02' E 140°53'1111.1
2014-Aug-25 20:33N 36°13' E 140°54'60 1.3
2014-Aug-23 23:28N 35°16' E 140°32'1510.9
2014-Aug-23 22:08N 35°05' E 140°20'711.7
2014-Aug-23 21:33N 35°02' E 140°13'1211.7
2014-Aug-23 20:30N 34°54' E 140°01'1310.1
2014-Aug-23 19:15N 34°55' E 139°45'24 1.6
2014-Aug-23 03:33N 35°02' E 140°14'1310.2
2014-Aug-23 02:19N 35°10' E 140°26'810.3
2014-Aug-23 01:33N 35°16' E 140°31'1010.1
2014-Aug-23 00:31N 35°25' E 140°39'1010.0
2014-Aug-22 23:29N 35°33' E 140°47'9 9.9
2014-Aug-22 22:33N 35°40' E 140°54'10 9.8
2014-Aug-22 21:33N 35°49' E 140°55'1110.6
2014-Aug-22 20:31N 36°00' E 140°55'  

Dump ship's entire track history